Time;durP1;ratioP1;P1;durP2;ratioP2;P2;SDS_P1;SDS_P2;PMS_P1;PMS_P2;Temp;Humidity;BMP_temperature;BMP_pressure;BME280_temperature;BME280_humidity;BME280_pressure;Samples;Min_cycle;Max_cycle;Signal;HPM_P1;HPM_P2
2022/11/17 00:01:39;;;;;;;18.15;7.47;;;;;;;11.71;100.00;96337.69;4943619;28;20100;-60
2022/11/17 00:04:04;;;;;;;18.75;8.15;;;;;;;12.96;100.00;96341.53;4944664;28;20055;-61
2022/11/17 00:06:29;;;;;;;15.82;6.35;;;;;;;13.26;100.00;96335.69;4944126;28;20843;-60
2022/11/17 00:08:55;;;;;;;18.40;7.75;;;;;;;13.07;100.00;96330.22;4944104;28;20023;-60
2022/11/17 00:11:20;;;;;;;24.92;9.30;;;;;;;12.40;100.00;96336.19;4945280;28;20130;-60
2022/11/17 00:16:29;;;;;;;23.98;10.60;;;;;;;11.98;100.00;96335.81;4943427;28;20050;-60
2022/11/17 00:21:38;;;;;;;24.25;9.95;;;;;;;12.00;100.00;96318.25;4942956;28;20048;-60
2022/11/17 00:24:04;;;;;;;19.92;8.38;;;;;;;12.78;100.00;96320.22;4945687;28;20038;-61
2022/11/17 00:26:32;;;;;;;23.83;10.07;;;;;;;11.96;100.00;96328.09;4942237;28;20043;-60
2022/11/17 00:29:00;;;;;;;21.52;9.00;;;;;;;12.30;100.00;96325.59;4949017;28;20027;-59
2022/11/17 00:34:17;;;;;;;16.15;7.75;;;;;;;12.56;100.00;96321.03;4944408;28;20134;-61
2022/11/17 00:36:45;;;;;;;22.80;9.82;;;;;;;12.21;100.00;96319.28;4946327;28;20044;-58
2022/11/17 00:39:11;;;;;;;22.75;9.68;;;;;;;11.92;100.00;96321.41;4946767;28;20780;-59
2022/11/17 00:41:37;;;;;;;20.38;8.00;;;;;;;12.73;100.00;96311.88;4945215;28;20043;-59
2022/11/17 00:44:03;;;;;;;20.75;8.77;;;;;;;12.10;100.00;96320.06;4948625;28;20053;-63
2022/11/17 00:46:28;;;;;;;18.88;7.68;;;;;;;12.70;100.00;96318.19;4943917;28;20043;-61
2022/11/17 00:48:54;;;;;;;18.33;8.65;;;;;;;11.85;100.00;96315.78;4946074;28;20106;-60
2022/11/17 00:51:20;;;;;;;22.48;9.65;;;;;;;11.46;100.00;96322.09;4947567;28;20035;-61
2022/11/17 00:53:45;;;;;;;21.45;9.93;;;;;;;11.65;100.00;96314.63;4948436;28;20069;-60
2022/11/17 00:56:11;;;;;;;26.02;10.80;;;;;;;11.74;100.00;96310.50;4946567;28;20683;-64
2022/11/17 00:58:37;;;;;;;24.85;10.93;;;;;;;11.68;100.00;96313.56;4947884;28;20079;-61
2022/11/17 01:01:03;;;;;;;23.33;10.32;;;;;;;11.74;100.00;96310.50;4945557;28;20139;-61
2022/11/17 01:03:28;;;;;;;25.98;10.38;;;;;;;11.36;100.00;96304.50;4948192;28;20031;-61
2022/11/17 01:05:53;;;;;;;24.50;10.98;;;;;;;10.82;100.00;96303.97;4947519;28;20043;-60
2022/11/17 01:08:19;;;;;;;29.55;11.20;;;;;;;11.15;100.00;96299.00;4945085;28;20018;-58
2022/11/17 01:10:44;;;;;;;26.58;10.95;;;;;;;11.11;100.00;96296.72;4943550;28;20064;-61
2022/11/17 01:13:09;;;;;;;27.00;10.93;;;;;;;11.27;100.00;96292.09;4948456;28;20031;-61
2022/11/17 01:15:35;;;;;;;29.73;12.05;;;;;;;11.17;100.00;96288.47;4946323;28;20048;-58
2022/11/17 01:18:00;;;;;;;32.03;11.15;;;;;;;11.48;100.00;96288.88;4945011;28;20035;-60
2022/11/17 01:20:26;;;;;;;34.05;11.70;;;;;;;11.31;100.00;96283.09;4945492;28;20042;-60
2022/11/17 01:22:54;;;;;;;27.13;10.85;;;;;;;11.24;100.00;96279.25;4948868;28;20530;-61
2022/11/17 01:25:19;;;;;;;29.20;10.57;;;;;;;10.63;100.00;96279.16;4947255;28;20058;-61
2022/11/17 01:27:46;;;;;;;30.48;11.32;;;;;;;11.19;100.00;96287.44;4948888;28;20180;-62
2022/11/17 01:30:12;;;;;;;45.38;13.98;;;;;;;11.48;100.00;96288.88;4947957;28;20030;-60
2022/11/17 01:32:37;;;;;;;33.38;11.57;;;;;;;11.34;100.00;96277.66;4946666;28;20027;-61
2022/11/17 01:35:03;;;;;;;32.75;11.02;;;;;;;11.44;100.00;96269.19;4948434;28;20065;-61
2022/11/17 01:37:28;;;;;;;32.88;11.05;;;;;;;11.59;100.00;96275.88;4944518;28;20039;-61
2022/11/17 01:39:54;;;;;;;30.52;10.85;;;;;;;11.67;100.00;96270.09;4944283;28;20035;-61
2022/11/17 01:42:23;;;;;;;32.92;11.02;;;;;;;11.61;100.00;96268.78;4947040;28;20039;-60
2022/11/17 01:45:16;;;;;;;28.20;10.20;;;;;;;11.69;100.00;96263.84;4947025;28;20031;-60
2022/11/17 01:47:46;;;;;;;24.50;10.25;;;;;;;11.23;100.00;96256.72;4923165;29;20461;-60
2022/11/17 01:50:33;;;;;;;35.80;11.23;;;;;;;11.60;100.00;96256.69;4931108;28;20032;-60
2022/11/17 01:53:01;;;;;;;32.17;10.90;;;;;;;10.90;100.00;96254.72;5027732;28;20021;-60
2022/11/17 01:55:39;;;;;;;32.97;11.50;;;;;;;11.78;100.00;96257.09;5027093;28;20118;-60
2022/11/17 01:58:09;;;;;;;31.60;11.70;;;;;;;11.47;100.00;96245.44;5035132;28;20894;-60
2022/11/17 02:05:59;;;;;;;80.80;18.98;;;;;;;11.80;100.00;96243.91;5989741;23;20024;-57
2022/11/17 02:24:02;;;;;;;72.65;18.45;;;;;;;11.22;100.00;96207.25;5818007;23;20356;-62
2022/11/17 03:00:12;;;;;;;80.38;20.10;;;;;;;10.97;100.00;96168.09;6004393;22;21403;-58
2022/11/17 03:02:43;;;;;;;40.08;13.38;;;;;;;11.47;100.00;96154.06;4983557;28;20073;-59
2022/11/17 03:05:27;;;;;;;36.35;12.27;;;;;;;10.97;100.00;96149.84;4994954;28;20073;-61
2022/11/17 03:08:30;;;;;;;37.83;12.40;;;;;;;11.32;100.00;96146.44;5000010;28;20030;-61
2022/11/17 03:11:03;;;;;;;38.03;12.77;;;;;;;11.44;100.00;96133.44;4947193;28;20041;-60
2022/11/17 03:13:34;;;;;;;;;;;;;;;11.50;100.00;96132.97;4998590;28;20053;-58
2022/11/17 03:16:05;;;;;;;33.30;11.77;;;;;;;11.97;100.00;96128.59;4997221;28;19924;-60
2022/11/17 03:18:52;;;;;;;32.67;11.40;;;;;;;11.20;100.00;96121.25;4998581;28;20041;-58
2022/11/17 03:21:20;;;;;;;36.92;11.98;;;;;;;11.40;100.00;96106.72;4994249;28;20574;-60
2022/11/17 03:23:54;;;;;;;39.83;12.60;;;;;;;11.62;100.00;96111.16;4995055;28;20029;-60
2022/11/17 03:26:37;;;;;;;35.35;12.63;;;;;;;11.21;100.00;96106.41;4994460;28;20065;-60
2022/11/17 03:29:06;;;;;;;35.65;11.98;;;;;;;11.51;100.00;96108.53;4997033;28;20686;-58
2022/11/17 03:31:33;;;;;;;35.65;11.98;;;;;;;11.84;100.00;96099.09;4995606;28;20414;-59
2022/11/17 03:34:03;;;;;;;37.15;12.40;;;;;;;11.48;100.00;96090.50;5000039;28;20393;-59
2022/11/17 03:36:35;;;;;;;32.00;10.98;;;;;;;11.24;100.00;96095.75;4998610;28;20034;-59
2022/11/17 03:39:07;;;;;;;32.63;11.88;;;;;;;11.73;100.00;96087.69;5001125;28;20049;-58
2022/11/17 03:41:38;;;;;;;31.38;11.45;;;;;;;12.35;100.00;96098.63;4999337;28;20199;-59
2022/11/17 03:44:05;;;;;;;28.65;11.18;;;;;;;12.35;100.00;96103.88;5004732;28;20072;-59
2022/11/17 03:46:32;;;;;;;31.38;10.68;;;;;;;11.96;100.00;96108.63;4997137;28;20734;-58
2022/11/17 03:49:32;;;;;;;31.80;11.35;;;;;;;12.26;100.00;96101.97;4998164;28;20030;-61
2022/11/17 03:51:58;;;;;;;25.83;9.57;;;;;;;12.41;100.00;96103.41;4996805;28;20049;-58
2022/11/17 03:54:23;;;;;;;40.38;12.82;;;;;;;12.06;100.00;96098.31;4999295;28;20579;-58
2022/11/17 03:57:12;;;;;;;26.30;10.38;;;;;;;12.24;100.00;96096.88;5001587;28;20039;-59
2022/11/17 03:59:47;;;;;;;32.97;11.32;;;;;;;11.95;100.00;96097.34;5000226;28;20076;-58
2022/11/17 04:02:16;;;;;;;31.10;11.10;;;;;;;11.86;100.00;96095.41;4997986;28;20049;-58
2022/11/17 04:07:26;;;;;;;28.30;10.93;;;;;;;11.88;100.00;96100.53;4997572;28;20408;-58
2022/11/17 04:09:51;;;;;;;34.00;11.35;;;;;;;12.24;100.00;96091.66;4998546;28;20121;-57
2022/11/17 04:17:44;;;;;;;30.88;11.93;;;;;;;11.16;100.00;96071.06;4997340;28;20069;-58
2022/11/17 04:20:10;;;;;;;28.15;10.55;;;;;;;11.03;100.00;96056.41;5000657;28;20096;-60
2022/11/17 04:22:35;;;;;;;33.55;11.52;;;;;;;11.50;100.00;96057.25;5001831;28;20029;-58
2022/11/17 04:25:00;;;;;;;25.23;10.05;;;;;;;11.37;100.00;96060.78;4999907;28;20032;-57
2022/11/17 04:30:10;;;;;;;24.60;10.10;;;;;;;11.35;100.00;96056.66;5001181;28;20044;-58
2022/11/17 04:32:36;;;;;;;31.05;11.65;;;;;;;11.36;100.00;96059.16;5001791;28;20435;-58
2022/11/17 04:35:01;;;;;;;23.45;10.10;;;;;;;11.08;100.00;96059.53;5003025;28;20037;-58
2022/11/17 04:37:26;;;;;;;28.90;10.15;;;;;;;11.54;100.00;96050.84;4999165;28;20029;-60
2022/11/17 04:39:52;;;;;;;31.02;11.20;;;;;;;11.72;100.00;96044.22;4997665;28;20022;-58
2022/11/17 04:42:17;;;;;;;30.70;10.80;;;;;;;11.72;100.00;96036.38;4999904;28;20042;-57
2022/11/17 04:44:42;;;;;;;28.45;10.38;;;;;;;11.14;100.00;96028.59;4996019;28;20112;-58
2022/11/17 04:47:08;;;;;;;27.98;10.32;;;;;;;11.19;100.00;96031.72;4997120;28;20531;-58
2022/11/17 04:49:33;;;;;;;25.95;9.68;;;;;;;11.38;100.00;96033.75;4997612;28;20147;-57
2022/11/17 04:51:59;;;;;;;27.25;9.70;;;;;;;11.75;100.00;96028.34;4998322;28;20053;-61
2022/11/17 04:54:24;;;;;;;28.83;10.40;;;;;;;11.40;100.00;96017.16;4999837;28;20033;-58
2022/11/17 04:56:51;;;;;;;27.75;10.55;;;;;;;11.19;100.00;95996.94;4999392;28;20105;-59
2022/11/17 04:59:16;;;;;;;29.85;10.85;;;;;;;11.06;100.00;96004.03;4997174;28;20034;-57
2022/11/17 05:01:42;;;;;;;29.58;10.27;;;;;;;11.57;100.00;96019.31;4997625;28;20042;-57
2022/11/17 05:04:10;;;;;;;27.50;10.23;;;;;;;12.08;100.00;96024.06;4996776;28;20036;-56
2022/11/17 05:06:43;;;;;;;25.58;9.65;;;;;;;11.81;100.00;96026.19;4997108;28;20168;-57
2022/11/17 05:09:12;;;;;;;30.23;10.43;;;;;;;12.16;100.00;96020.84;4997422;28;20064;-58
2022/11/17 05:14:24;;;;;;;30.30;10.05;;;;;;;12.47;100.00;96029.69;4997452;28;20041;-57
2022/11/17 05:17:04;;;;;;;28.40;9.63;;;;;;;12.38;100.00;96029.63;4996504;28;20042;-59
2022/11/17 05:19:33;;;;;;;31.85;10.30;;;;;;;12.53;100.00;96034.47;4998582;28;20022;-56
2022/11/17 05:21:58;;;;;;;23.52;9.35;;;;;;;12.63;100.00;96039.78;4999156;28;20041;-60
2022/11/17 05:24:25;;;;;;;27.55;9.65;;;;;;;12.27;100.00;96033.91;4995490;28;20021;-60
2022/11/17 05:26:51;;;;;;;24.48;9.75;;;;;;;12.62;100.00;96032.88;4998332;28;20083;-58
2022/11/17 05:29:20;;;;;;;25.30;10.05;;;;;;;12.90;100.00;96041.94;4998312;28;20104;-58
2022/11/17 05:31:46;;;;;;;23.20;9.27;;;;;;;12.77;100.00;96046.47;4994969;28;20037;-57
2022/11/17 05:34:14;;;;;;;23.17;9.32;;;;;;;12.78;100.00;96042.94;4995462;28;20022;-57
2022/11/17 05:36:40;;;;;;;31.48;10.77;;;;;;;12.09;100.00;96051.88;4996906;28;20049;-57
2022/11/17 05:39:06;;;;;;;26.08;9.73;;;;;;;12.41;100.00;96039.84;4996601;28;20026;-56
2022/11/17 05:41:32;;;;;;;31.55;9.63;;;;;;;12.12;100.00;96046.41;4996149;28;20038;-57
2022/11/17 05:43:58;;;;;;;25.30;9.30;;;;;;;11.87;100.00;96041.38;4994685;28;20112;-57
2022/11/17 05:46:23;;;;;;;23.65;9.50;;;;;;;12.06;100.00;96044.28;4997241;28;20042;-59
2022/11/17 05:48:50;;;;;;;23.90;9.07;;;;;;;11.73;100.00;96040.69;5003843;28;20125;-58
2022/11/17 05:51:17;;;;;;;24.13;9.45;;;;;;;12.22;100.00;96041.28;4996829;28;20038;-57
2022/11/17 05:53:42;;;;;;;28.88;10.38;;;;;;;11.54;100.00;96045.63;5001138;28;20033;-56
2022/11/17 05:56:50;;;;;;;27.02;10.02;;;;;;;11.70;100.00;96051.34;4995622;28;20045;-57
2022/11/17 05:59:40;;;;;;;22.73;8.95;;;;;;;11.21;100.00;96042.00;4963187;28;20035;-56
2022/11/17 06:02:30;;;;;;;27.15;9.82;;;;;;;11.31;100.00;96035.16;4979473;28;20983;-59
2022/11/17 06:04:55;;;;;;;26.42;9.75;;;;;;;11.09;100.00;96046.38;4898526;28;20044;-57
2022/11/17 06:07:21;;;;;;;23.42;9.15;;;;;;;11.16;100.00;96051.97;4989889;28;20057;-57
2022/11/17 06:09:46;;;;;;;29.23;10.32;;;;;;;11.35;100.00;96052.25;4997464;28;20022;-57
2022/11/17 06:12:14;;;;;;;26.48;9.68;;;;;;;11.20;100.00;96045.56;4998009;28;20033;-58
2022/11/17 06:14:39;;;;;;;26.05;9.70;;;;;;;12.00;100.00;96042.13;4998209;28;20970;-57
2022/11/17 06:17:19;;;;;;;26.35;9.13;;;;;;;11.40;100.00;96040.66;5000306;28;20038;-60
2022/11/17 06:19:51;;;;;;;33.50;11.75;;;;;;;11.47;100.00;96044.44;4995994;28;20108;-59
2022/11/17 06:22:16;;;;;;;26.80;9.82;;;;;;;11.13;100.00;96052.19;4993767;28;20504;-59
2022/11/17 06:24:43;;;;;;;28.77;10.20;;;;;;;11.38;100.00;96046.81;4991093;28;20049;-57
2022/11/17 06:27:15;;;;;;;28.10;10.90;;;;;;;10.83;100.00;96045.69;4996455;28;20128;-58
2022/11/17 06:29:41;;;;;;;28.58;10.20;;;;;;;11.01;100.00;96043.50;4999219;28;20026;-56
2022/11/17 06:32:07;;;;;;;30.15;11.15;;;;;;;11.47;100.00;96044.44;4995512;28;20057;-57
2022/11/17 06:34:33;;;;;;;18.63;7.53;;;;;;;11.68;100.00;96048.03;5000529;28;20076;-54
2022/11/17 06:36:59;;;;;;;91.60;26.70;;;;;;;11.61;100.00;96052.06;4996312;28;20563;-55
2022/11/17 06:39:24;;;;;;;24.88;9.88;;;;;;;11.67;100.00;96054.22;4999750;28;20036;-56
2022/11/17 06:41:49;;;;;;;40.53;13.15;;;;;;;11.82;100.00;96069.63;4996272;28;20482;-56
2022/11/17 06:44:15;;;;;;;44.92;14.95;;;;;;;12.48;100.00;96065.38;4993786;28;20024;-56
2022/11/17 06:46:40;;;;;;;24.95;9.23;;;;;;;12.60;100.00;96067.94;4993006;28;20046;-57
2022/11/17 06:49:07;;;;;;;23.20;9.02;;;;;;;12.25;100.00;96082.03;4993925;28;20034;-57
2022/11/17 06:51:35;;;;;;;25.63;9.38;;;;;;;12.41;100.00;96094.75;4994666;28;20033;-57
2022/11/17 06:54:02;;;;;;;26.90;10.02;;;;;;;11.97;100.00;96088.56;4999152;28;20026;-56
2022/11/17 06:56:28;;;;;;;34.47;11.27;;;;;;;12.35;100.00;96088.19;4995688;28;20038;-56
2022/11/17 06:58:55;;;;;;;28.67;11.23;;;;;;;12.19;100.00;96088.56;4994499;28;20022;-55
2022/11/17 07:01:20;;;;;;;33.25;11.35;;;;;;;12.29;100.00;96091.28;4997639;28;20046;-57
2022/11/17 07:03:45;;;;;;;28.38;11.07;;;;;;;12.22;100.00;96082.25;4995449;28;20025;-56
2022/11/17 07:06:11;;;;;;;38.25;12.00;;;;;;;12.34;100.00;96081.31;4996240;28;20041;-55
2022/11/17 07:08:38;;;;;;;34.17;11.95;;;;;;;11.80;100.00;96076.75;4996368;28;20053;-55
2022/11/17 07:11:04;;;;;;;34.63;11.68;;;;;;;12.06;100.00;96088.69;5001077;28;20041;-55
2022/11/17 07:13:31;;;;;;;37.58;12.32;;;;;;;11.90;100.00;96083.81;5000812;28;20044;-60
2022/11/17 07:16:11;;;;;;;43.88;13.50;;;;;;;11.63;100.00;96065.00;5003746;28;20156;-55
2022/11/17 07:18:37;;;;;;;39.08;12.27;;;;;;;11.93;100.00;96080.16;5002566;28;20491;-55
2022/11/17 07:21:05;;;;;;;44.40;13.77;;;;;;;11.50;100.00;96083.38;4999954;28;20054;-55
2022/11/17 07:23:32;;;;;;;32.78;12.02;;;;;;;11.70;100.00;95952.13;5002242;28;20077;-55
2022/11/17 07:25:58;;;;;;;35.67;12.40;;;;;;;13.27;100.00;95965.59;5002567;28;20035;-56
2022/11/17 07:28:24;;;;;;;41.13;13.70;;;;;;;12.64;100.00;96043.22;4999070;28;20030;-54
2022/11/17 07:30:49;;;;;;;40.17;13.27;;;;;;;12.33;100.00;96043.03;5003845;28;20088;-55
2022/11/17 07:33:14;;;;;;;37.90;13.07;;;;;;;12.44;100.00;96044.81;5003119;28;20537;-58
2022/11/17 07:35:40;;;;;;;41.33;14.07;;;;;;;12.57;100.00;96052.50;5004079;28;20126;-55
2022/11/17 07:38:05;;;;;;;39.80;13.35;;;;;;;12.37;100.00;96057.53;5001383;28;20139;-56
2022/11/17 07:40:30;;;;;;;36.33;13.52;;;;;;;12.35;100.00;96062.03;5001581;28;20068;-56
2022/11/17 07:42:56;;;;;;;31.13;11.30;;;;;;;12.40;100.00;96062.50;5001598;28;20113;-55
2022/11/17 07:45:24;;;;;;;31.17;12.00;;;;;;;12.35;100.00;96062.03;4998781;28;20396;-56
2022/11/17 07:48:01;;;;;;;32.65;11.45;;;;;;;12.88;100.00;96072.63;5001980;28;20696;-57
2022/11/17 07:50:27;;;;;;;31.52;11.00;;;;;;;13.03;100.00;96082.78;4998833;28;20038;-58
2022/11/17 07:52:54;;;;;;;33.50;12.40;;;;;;;11.73;100.00;96061.56;5000264;28;20030;-58
2022/11/17 07:55:20;;;;;;;39.05;13.60;;;;;;;12.32;100.00;96050.06;5001442;28;20025;-55
2022/11/17 07:57:46;;;;;;;37.20;12.90;;;;;;;11.64;100.00;96024.91;5003665;28;20160;-54
2022/11/17 08:00:13;;;;;;;39.40;14.02;;;;;;;11.63;100.00;96024.03;4999149;28;20034;-54
2022/11/17 08:02:39;;;;;;;29.48;12.02;;;;;;;11.80;100.00;96034.97;5004885;28;20030;-57
2022/11/17 08:05:05;;;;;;;39.30;13.20;;;;;;;12.32;100.00;96036.16;5000408;28;20065;-57
2022/11/17 08:07:30;;;;;;;58.47;13.63;;;;;;;12.60;100.00;96032.16;5000870;28;20137;-57
2022/11/17 08:09:56;;;;;;;90.80;16.27;;;;;;;12.39;100.00;96037.34;4999869;28;20029;-57
2022/11/17 08:12:22;;;;;;;36.10;11.82;;;;;;;12.76;100.00;96037.00;4998344;28;20048;-54
2022/11/17 08:14:47;;;;;;;28.90;11.07;;;;;;;12.75;100.00;96027.47;4997825;28;20399;-55
2022/11/17 08:17:13;;;;;;;35.10;12.70;;;;;;;12.43;100.00;96017.84;5001303;28;20492;-54
2022/11/17 08:19:38;;;;;;;27.58;10.90;;;;;;;12.26;100.00;96020.94;4996458;28;20530;-56
2022/11/17 08:22:04;;;;;;;29.38;10.65;;;;;;;13.07;100.00;96027.47;4997582;28;20084;-55
2022/11/17 08:24:29;;;;;;;34.17;11.25;;;;;;;13.22;100.00;96025.38;5002267;28;20065;-55
2022/11/17 08:26:54;;;;;;;27.60;10.35;;;;;;;13.86;100.00;96023.53;4997156;28;20565;-57
2022/11/17 08:29:19;;;;;;;21.02;9.32;;;;;;;13.18;100.00;96028.34;4999861;28;20123;-54
2022/11/17 08:31:46;;;;;;;23.83;8.55;;;;;;;13.11;100.00;96034.09;4996855;28;20454;-56
2022/11/17 08:34:12;;;;;;;22.00;8.93;;;;;;;13.85;100.00;96040.22;4999700;28;20025;-58
2022/11/17 08:36:37;;;;;;;20.17;9.13;;;;;;;13.84;100.00;96042.00;4998912;28;20049;-56
2022/11/17 08:39:03;;;;;;;24.52;10.07;;;;;;;13.40;100.00;96050.97;5002576;28;20025;-58
2022/11/17 08:41:28;;;;;;;23.02;9.57;;;;;;;13.82;100.00;96048.31;5000113;28;20466;-57
2022/11/17 08:43:53;;;;;;;21.88;8.93;;;;;;;14.07;100.00;96062.78;5000932;28;20375;-57
2022/11/17 08:46:19;;;;;;;23.58;9.20;;;;;;;12.96;100.00;96044.97;4997981;28;20401;-58
2022/11/17 08:48:44;;;;;;;24.80;9.85;;;;;;;13.14;100.00;96043.50;5000045;28;20497;-56
2022/11/17 08:51:11;;;;;;;24.58;10.13;;;;;;;13.64;100.00;96033.22;5001721;28;20270;-56
2022/11/17 08:53:36;;;;;;;20.67;8.85;;;;;;;14.51;100.00;96046.78;4997246;28;20083;-56
2022/11/17 08:56:06;;;;;;;22.08;8.88;;;;;;;14.44;100.00;96046.47;4995335;28;20145;-59
2022/11/17 08:58:36;;;;;;;19.17;9.15;;;;;;;14.60;100.00;96048.63;4997992;28;20423;-58
2022/11/17 09:01:01;;;;;;;19.63;7.95;;;;;;;14.58;100.00;96046.13;4997059;28;20491;-58
2022/11/17 09:03:27;;;;;;;20.88;7.55;;;;;;;14.67;100.00;96056.75;5002017;28;20034;-56
2022/11/17 09:05:52;;;;;;;24.70;7.70;;;;;;;14.71;100.00;96051.13;4995534;28;20084;-59
2022/11/17 09:08:17;;;;;;;17.60;8.05;;;;;;;14.33;100.00;96052.66;4996242;28;20112;-56
2022/11/17 09:10:43;;;;;;;17.73;7.10;;;;;;;14.68;100.00;96059.25;5000460;28;20037;-56
2022/11/17 09:13:08;;;;;;;17.08;7.22;;;;;;;13.95;100.00;96054.19;4999206;28;20030;-58
2022/11/17 09:15:34;;;;;;;16.65;7.18;;;;;;;13.75;100.00;96058.50;4995804;28;20414;-57
2022/11/17 09:18:00;;;;;;;15.38;7.00;;;;;;;14.35;100.00;96066.47;4997861;28;20124;-58
2022/11/17 09:20:26;;;;;;;14.45;6.57;;;;;;;14.70;100.00;96054.69;4995867;28;20057;-57
2022/11/17 09:22:52;;;;;;;16.13;6.55;;;;;;;14.76;100.00;96063.81;5001850;28;20049;-57
2022/11/17 09:25:17;;;;;;;13.35;5.82;;;;;;;13.21;100.00;96065.56;4997837;28;20025;-58
2022/11/17 09:27:42;;;;;;;10.65;4.97;;;;;;;14.72;100.00;96063.28;4999191;28;20117;-56
2022/11/17 09:30:08;;;;;;;14.70;6.22;;;;;;;15.08;100.00;96053.06;5001808;28;20033;-57
2022/11/17 09:32:34;;;;;;;12.43;5.90;;;;;;;15.08;100.00;96060.94;4999791;28;20139;-57
2022/11/17 09:35:00;;;;;;;11.30;5.63;;;;;;;13.93;100.00;96064.00;4998062;28;20045;-58
2022/11/17 09:37:26;;;;;;;15.52;6.22;;;;;;;14.24;100.00;96058.72;4992879;28;20040;-57
2022/11/17 09:39:52;;;;;;;12.63;5.85;;;;;;;14.50;100.00;96055.59;4996269;28;20057;-57
2022/11/17 09:42:18;;;;;;;12.88;5.78;;;;;;;14.65;100.00;96047.25;4998296;28;20124;-60
2022/11/17 09:44:56;;;;;;;12.43;5.88;;;;;;;15.29;100.00;96046.84;4994168;28;20112;-57
2022/11/17 09:47:24;;;;;;;11.15;5.13;;;;;;;15.35;100.00;96048.94;4994630;28;20080;-58
2022/11/17 09:50:01;;;;;;;11.73;5.13;;;;;;;15.59;100.00;96036.16;4997480;28;20022;-58
2022/11/17 09:52:53;;;;;;;19.10;6.68;;;;;;;15.17;100.00;96028.59;5003072;28;20041;-58
2022/11/17 09:55:40;;;;;;;13.30;5.53;;;;;;;14.23;100.00;96020.34;4991186;28;20459;-56
2022/11/17 09:58:34;;;;;;;10.70;4.68;;;;;;;13.97;100.00;96026.06;4991433;28;20800;-58
2022/11/17 10:01:00;;;;;;;12.88;5.40;;;;;;;14.14;100.00;96031.66;4993303;28;20067;-59
2022/11/17 10:03:31;;;;;;;11.18;5.15;;;;;;;14.02;100.00;96021.25;5000046;28;20462;-58
2022/11/17 10:06:04;;;;;;;10.68;4.65;;;;;;;14.46;100.00;96027.03;4998763;28;20034;-58
2022/11/17 10:09:00;;;;;;;11.80;5.47;;;;;;;14.20;100.00;96038.97;4995828;28;20026;-59
2022/11/17 10:11:31;;;;;;;11.77;5.20;;;;;;;14.91;100.00;96061.66;4995944;28;20594;-58
2022/11/17 10:14:15;;;;;;;9.70;4.13;;;;;;;14.70;100.00;96017.16;4999801;28;20028;-57
2022/11/17 10:16:44;;;;;;;13.45;6.43;;;;;;;13.78;100.00;96052.19;4996111;28;20042;-58
2022/11/17 10:19:23;;;;;;;17.00;5.43;;;;;;;13.13;100.00;96020.91;4996877;28;20494;-58
2022/11/17 10:21:55;;;;;;;14.32;5.72;;;;;;;13.53;100.00;96027.22;4996654;28;20046;-58
2022/11/17 10:24:37;;;;;;;18.52;6.85;;;;;;;13.73;100.00;96018.53;4995802;28;20038;-59
2022/11/17 10:27:05;;;;;;;;;;;;;;;13.64;100.00;96020.13;5000353;28;20037;-59
2022/11/17 10:29:31;;;;;;;11.93;5.22;;;;;;;12.97;100.00;96026.56;4999178;28;19951;-60
2022/11/17 10:31:57;;;;;;;12.38;5.85;;;;;;;13.78;100.00;96025.97;4998412;28;20065;-58
2022/11/17 10:34:37;;;;;;;12.02;5.75;;;;;;;14.48;100.00;96036.56;4998428;28;20029;-59
2022/11/17 10:37:04;;;;;;;14.55;6.60;;;;;;;15.06;100.00;96033.19;5000462;28;20933;-58
2022/11/17 10:39:38;;;;;;;11.80;6.55;;;;;;;14.37;100.00;96032.25;4996123;28;20030;-58
2022/11/17 10:42:30;;;;;;;12.50;5.88;;;;;;;14.30;100.00;96037.22;4996309;28;20044;-58
2022/11/17 10:44:58;;;;;;;11.10;5.07;;;;;;;15.07;100.00;96040.94;4994362;28;20034;-58
2022/11/17 10:47:26;;;;;;;13.40;6.00;;;;;;;14.77;100.00;96031.38;4996838;28;20100;-58
2022/11/17 10:50:05;;;;;;;13.23;5.70;;;;;;;14.45;100.00;96025.38;5000058;28;20033;-58
2022/11/17 10:52:30;;;;;;;13.13;5.80;;;;;;;15.22;100.00;96034.28;4996270;28;20543;-58
2022/11/17 10:55:17;;;;;;;12.40;5.65;;;;;;;14.58;100.00;96034.81;4995189;28;20033;-58
2022/11/17 10:57:55;;;;;;;16.20;5.80;;;;;;;15.11;100.00;96034.44;4996542;28;20149;-57
2022/11/17 11:00:28;;;;;;;11.15;5.35;;;;;;;15.15;100.00;96038.44;4995559;28;20102;-58
2022/11/17 11:03:02;;;;;;;12.00;5.70;;;;;;;14.44;100.00;96039.44;4995133;28;20028;-58
2022/11/17 11:05:27;;;;;;;10.57;5.18;;;;;;;14.91;100.00;96035.41;4998003;28;20038;-58
2022/11/17 11:08:14;;;;;;;11.40;5.47;;;;;;;15.20;100.00;96041.47;4998520;28;20048;-59
2022/11/17 11:10:42;;;;;;;13.15;5.45;;;;;;;15.51;100.00;96043.94;4999864;28;20049;-57
2022/11/17 11:13:31;;;;;;;9.80;4.78;;;;;;;15.67;100.00;96027.53;5000151;28;20054;-60
2022/11/17 11:15:56;;;;;;;10.27;5.18;;;;;;;14.86;100.00;96037.59;4993117;28;20041;-58
2022/11/17 11:18:22;;;;;;;9.68;4.43;;;;;;;15.58;100.00;96042.34;5001973;28;20026;-59
2022/11/17 11:21:06;;;;;;;12.48;5.70;;;;;;;14.60;100.00;96027.63;4995884;28;20034;-59
2022/11/17 11:23:56;;;;;;;8.85;4.35;;;;;;;15.86;100.00;96026.72;4999786;28;20033;-61
2022/11/17 11:26:31;;;;;;;9.63;4.75;;;;;;;15.78;100.00;96023.94;4995658;28;20116;-59
2022/11/17 11:29:15;;;;;;;9.95;4.30;;;;;;;15.18;100.00;96027.66;4999179;28;20899;-59
2022/11/17 11:32:16;;;;;;;16.83;4.53;;;;;;;15.22;100.00;96026.41;4996592;28;20780;-61
2022/11/17 11:35:18;;;;;;;10.43;4.45;;;;;;;15.20;100.00;96020.47;4992033;28;20172;-60
2022/11/17 11:37:57;;;;;;;8.98;4.38;;;;;;;15.85;100.00;96017.16;4996643;28;20041;-57
2022/11/17 11:40:34;;;;;;;15.80;4.68;;;;;;;15.37;100.00;96020.72;4996537;28;20033;-57
2022/11/17 11:43:37;;;;;;;12.63;5.07;;;;;;;15.36;100.00;96012.00;4999750;28;20199;-58
2022/11/17 11:46:30;;;;;;;10.77;5.15;;;;;;;15.86;100.00;96010.94;4996301;28;20038;-58
2022/11/17 11:49:04;;;;;;;14.85;5.05;;;;;;;15.11;100.00;96020.44;4994531;28;20036;-60
2022/11/17 11:51:36;;;;;;;8.73;4.57;;;;;;;15.20;100.00;96004.72;4997203;28;20050;-59
2022/11/17 11:54:24;;;;;;;11.07;4.10;;;;;;;15.47;100.00;96005.75;4999505;28;20034;-58
2022/11/17 11:56:50;;;;;;;8.82;3.60;;;;;;;16.08;100.00;96009.72;5001949;28;20103;-59
2022/11/17 11:59:25;;;;;;;11.80;4.78;;;;;;;15.63;100.00;96006.97;4997407;28;20458;-59
2022/11/17 12:02:19;;;;;;;10.55;4.40;;;;;;;16.89;100.00;96002.84;4998334;28;20046;-59
2022/11/17 12:05:15;;;;;;;9.40;4.10;;;;;;;16.58;100.00;96005.84;5001864;28;20784;-59
2022/11/17 12:08:15;;;;;;;10.25;3.58;;;;;;;16.06;100.00;96010.84;4998706;28;20049;-58
2022/11/17 12:10:57;;;;;;;7.25;3.35;;;;;;;16.58;100.00;95995.31;4993386;28;20037;-57
2022/11/17 12:13:23;;;;;;;11.40;4.37;;;;;;;15.98;100.00;95983.47;5001281;28;20644;-60
2022/11/17 12:15:49;;;;;;;9.00;3.85;;;;;;;16.10;100.00;95981.50;5004551;28;20042;-59
2022/11/17 12:18:17;;;;;;;8.55;4.15;;;;;;;15.60;100.00;95980.00;4998225;28;20136;-58
2022/11/17 12:20:59;;;;;;;7.35;3.63;;;;;;;16.04;100.00;95979.44;4998470;28;20156;-60
2022/11/17 12:23:47;;;;;;;11.05;4.20;;;;;;;15.80;100.00;95979.94;5001272;28;20695;-59
2022/11/17 12:26:27;;;;;;;9.02;3.47;;;;;;;16.38;100.00;95984.91;4999646;28;20580;-57
2022/11/17 12:29:18;;;;;;;7.70;3.15;;;;;;;17.03;100.00;95988.34;5001882;28;20156;-59
2022/11/17 12:31:45;;;;;;;8.15;3.30;;;;;;;16.43;100.00;95994.16;4997873;28;20041;-58
2022/11/17 12:34:21;;;;;;;6.05;3.20;;;;;;;16.37;100.00;95990.31;4997065;28;20032;-59
2022/11/17 12:37:19;;;;;;;8.52;3.65;;;;;;;15.79;100.00;95986.19;4996894;28;20030;-57
2022/11/17 12:39:59;;;;;;;15.38;5.53;;;;;;;16.31;100.00;95981.22;4999543;28;20112;-57
2022/11/17 12:42:29;;;;;;;9.35;4.00;;;;;;;16.26;100.00;95975.56;4998469;28;20038;-58
2022/11/17 12:44:57;;;;;;;7.90;3.78;;;;;;;16.19;100.00;95983.22;4994215;28;20021;-58
2022/11/17 12:47:30;;;;;;;8.27;3.67;;;;;;;15.78;100.00;95984.53;5000665;28;20037;-60